Terminal Aerodrome Forecast
Issued by NWS Cleveland, OH

Home | Current Version | Previous Version | Text Only | Print | Product List | Glossary On
Versions: 1 2 3 4 5 6 7 8 9 10 11 12 13 14 15 16 17 18 19
000
FTUS41 KCLE 032330
TAFERI
TAF
KERI 032330Z 0400/0424 25006KT P6SM VCSH SCT045
      TEMPO 0400/0403 3SM -SHRA BKN030
     FM041500 26010KT P6SM VCSH BKN045=

USA.gov is the U.S. government's official web portal to all federal, state and local government web resources and services.